sensor_id;sensor_type;location;lat;lon;timestamp;P1;durP1;ratioP1;P2;durP2;ratioP2
15555;SDS011;7879;48.660;9.116;2023-03-03T00:00:06;0.30;;;0.30;;
15555;SDS011;7879;48.660;9.116;2023-03-03T00:02:34;0.30;;;0.30;;
15555;SDS011;7879;48.660;9.116;2023-03-03T00:05:01;0.30;;;0.30;;
15555;SDS011;7879;48.660;9.116;2023-03-03T00:07:27;0.30;;;0.30;;
15555;SDS011;7879;48.660;9.116;2023-03-03T00:09:54;0.30;;;0.30;;
15555;SDS011;7879;48.660;9.116;2023-03-03T00:12:28;0.30;;;0.30;;
15555;SDS011;7879;48.660;9.116;2023-03-03T00:14:55;0.30;;;0.30;;
15555;SDS011;7879;48.660;9.116;2023-03-03T00:17:24;0.30;;;0.30;;
15555;SDS011;7879;48.660;9.116;2023-03-03T00:19:52;0.30;;;0.30;;
15555;SDS011;7879;48.660;9.116;2023-03-03T00:22:34;0.30;;;0.30;;
15555;SDS011;7879;48.660;9.116;2023-03-03T00:27:44;0.30;;;0.30;;
15555;SDS011;7879;48.660;9.116;2023-03-03T00:30:24;0.35;;;0.35;;
15555;SDS011;7879;48.660;9.116;2023-03-03T00:32:53;0.40;;;0.40;;
15555;SDS011;7879;48.660;9.116;2023-03-03T00:35:24;0.30;;;0.30;;
15555;SDS011;7879;48.660;9.116;2023-03-03T00:37:56;0.40;;;0.40;;
15555;SDS011;7879;48.660;9.116;2023-03-03T00:40:26;0.40;;;0.40;;
15555;SDS011;7879;48.660;9.116;2023-03-03T00:43:23;0.40;;;0.40;;
15555;SDS011;7879;48.660;9.116;2023-03-03T00:45:54;0.30;;;0.30;;
15555;SDS011;7879;48.660;9.116;2023-03-03T00:48:26;0.32;;;0.32;;
15555;SDS011;7879;48.660;9.116;2023-03-03T00:51:27;0.30;;;0.30;;
15555;SDS011;7879;48.660;9.116;2023-03-03T00:53:56;0.30;;;0.30;;
15555;SDS011;7879;48.660;9.116;2023-03-03T00:56:24;0.30;;;0.30;;
15555;SDS011;7879;48.660;9.116;2023-03-03T00:58:52;0.40;;;0.40;;
15555;SDS011;7879;48.660;9.116;2023-03-03T01:01:19;0.40;;;0.40;;
15555;SDS011;7879;48.660;9.116;2023-03-03T01:03:46;0.40;;;0.40;;
15555;SDS011;7879;48.660;9.116;2023-03-03T01:06:13;0.40;;;0.40;;
15555;SDS011;7879;48.660;9.116;2023-03-03T01:08:40;0.45;;;0.45;;
15555;SDS011;7879;48.660;9.116;2023-03-03T01:11:29;0.40;;;0.40;;
15555;SDS011;7879;48.660;9.116;2023-03-03T01:13:54;0.40;;;0.40;;
15555;SDS011;7879;48.660;9.116;2023-03-03T01:16:22;0.30;;;0.30;;
15555;SDS011;7879;48.660;9.116;2023-03-03T01:18:49;0.30;;;0.30;;
15555;SDS011;7879;48.660;9.116;2023-03-03T01:21:16;0.30;;;0.30;;
15555;SDS011;7879;48.660;9.116;2023-03-03T01:23:42;0.40;;;0.40;;
15555;SDS011;7879;48.660;9.116;2023-03-03T01:26:10;0.40;;;0.40;;
15555;SDS011;7879;48.660;9.116;2023-03-03T01:28:36;0.40;;;0.40;;
15555;SDS011;7879;48.660;9.116;2023-03-03T01:31:04;0.50;;;0.50;;
15555;SDS011;7879;48.660;9.116;2023-03-03T01:33:32;0.40;;;0.40;;
15555;SDS011;7879;48.660;9.116;2023-03-03T01:36:01;0.30;;;0.30;;
15555;SDS011;7879;48.660;9.116;2023-03-03T01:38:28;0.40;;;0.40;;
15555;SDS011;7879;48.660;9.116;2023-03-03T01:40:57;0.40;;;0.40;;
15555;SDS011;7879;48.660;9.116;2023-03-03T01:43:25;0.40;;;0.40;;
15555;SDS011;7879;48.660;9.116;2023-03-03T01:48:29;0.50;;;0.50;;
15555;SDS011;7879;48.660;9.116;2023-03-03T01:51:04;0.50;;;0.50;;
15555;SDS011;7879;48.660;9.116;2023-03-03T01:53:58;0.50;;;0.50;;
15555;SDS011;7879;48.660;9.116;2023-03-03T01:56:28;0.35;;;0.35;;
15555;SDS011;7879;48.660;9.116;2023-03-03T01:58:59;0.40;;;0.40;;
15555;SDS011;7879;48.660;9.116;2023-03-03T02:01:30;0.40;;;0.40;;
15555;SDS011;7879;48.660;9.116;2023-03-03T02:03:59;0.50;;;0.50;;
15555;SDS011;7879;48.660;9.116;2023-03-03T02:06:27;0.50;;;0.50;;
15555;SDS011;7879;48.660;9.116;2023-03-03T02:11:35;0.30;;;0.30;;
15555;SDS011;7879;48.660;9.116;2023-03-03T02:14:04;0.30;;;0.30;;
15555;SDS011;7879;48.660;9.116;2023-03-03T02:16:30;0.40;;;0.40;;
15555;SDS011;7879;48.660;9.116;2023-03-03T02:18:57;0.40;;;0.40;;
15555;SDS011;7879;48.660;9.116;2023-03-03T02:21:24;0.50;;;0.50;;
15555;SDS011;7879;48.660;9.116;2023-03-03T02:26:33;0.30;;;0.30;;
15555;SDS011;7879;48.660;9.116;2023-03-03T02:29:02;0.40;;;0.40;;
15555;SDS011;7879;48.660;9.116;2023-03-03T02:31:29;0.40;;;0.40;;
15555;SDS011;7879;48.660;9.116;2023-03-03T02:33:57;0.40;;;0.40;;
15555;SDS011;7879;48.660;9.116;2023-03-03T02:36:28;0.50;;;0.50;;
15555;SDS011;7879;48.660;9.116;2023-03-03T02:39:13;0.30;;;0.30;;
15555;SDS011;7879;48.660;9.116;2023-03-03T02:44:30;0.40;;;0.40;;
15555;SDS011;7879;48.660;9.116;2023-03-03T02:46:58;0.40;;;0.40;;
15555;SDS011;7879;48.660;9.116;2023-03-03T02:49:26;0.40;;;0.40;;
15555;SDS011;7879;48.660;9.116;2023-03-03T02:51:58;0.50;;;0.50;;
15555;SDS011;7879;48.660;9.116;2023-03-03T02:54:27;0.30;;;0.30;;
15555;SDS011;7879;48.660;9.116;2023-03-03T02:56:56;0.40;;;0.40;;
15555;SDS011;7879;48.660;9.116;2023-03-03T02:59:24;0.40;;;0.40;;
15555;SDS011;7879;48.660;9.116;2023-03-03T03:01:51;0.50;;;0.50;;
15555;SDS011;7879;48.660;9.116;2023-03-03T03:04:19;0.50;;;0.50;;
15555;SDS011;7879;48.660;9.116;2023-03-03T03:06:48;0.30;;;0.30;;
15555;SDS011;7879;48.660;9.116;2023-03-03T03:09:15;0.40;;;0.40;;
15555;SDS011;7879;48.660;9.116;2023-03-03T03:11:44;0.40;;;0.40;;
15555;SDS011;7879;48.660;9.116;2023-03-03T03:14:11;0.40;;;0.40;;
15555;SDS011;7879;48.660;9.116;2023-03-03T03:16:40;0.50;;;0.50;;
15555;SDS011;7879;48.660;9.116;2023-03-03T03:19:07;0.30;;;0.30;;
15555;SDS011;7879;48.660;9.116;2023-03-03T03:21:34;0.30;;;0.30;;
15555;SDS011;7879;48.660;9.116;2023-03-03T03:24:01;0.40;;;0.40;;
15555;SDS011;7879;48.660;9.116;2023-03-03T03:26:27;0.30;;;0.30;;
15555;SDS011;7879;48.660;9.116;2023-03-03T03:28:54;0.40;;;0.40;;
15555;SDS011;7879;48.660;9.116;2023-03-03T03:31:22;0.40;;;0.40;;
15555;SDS011;7879;48.660;9.116;2023-03-03T03:33:49;0.50;;;0.50;;
15555;SDS011;7879;48.660;9.116;2023-03-03T03:36:17;0.35;;;0.35;;
15555;SDS011;7879;48.660;9.116;2023-03-03T03:38:44;0.30;;;0.30;;
15555;SDS011;7879;48.660;9.116;2023-03-03T03:41:11;0.40;;;0.40;;
15555;SDS011;7879;48.660;9.116;2023-03-03T03:43:39;0.40;;;0.40;;
15555;SDS011;7879;48.660;9.116;2023-03-03T03:46:06;0.40;;;0.40;;
15555;SDS011;7879;48.660;9.116;2023-03-03T03:48:33;0.40;;;0.40;;
15555;SDS011;7879;48.660;9.116;2023-03-03T03:51:00;0.40;;;0.40;;
15555;SDS011;7879;48.660;9.116;2023-03-03T03:53:27;0.40;;;0.40;;
15555;SDS011;7879;48.660;9.116;2023-03-03T03:55:54;0.30;;;0.30;;
15555;SDS011;7879;48.660;9.116;2023-03-03T03:58:21;0.30;;;0.30;;
15555;SDS011;7879;48.660;9.116;2023-03-03T04:00:48;0.30;;;0.30;;
15555;SDS011;7879;48.660;9.116;2023-03-03T04:03:15;0.38;;;0.38;;
15555;SDS011;7879;48.660;9.116;2023-03-03T04:05:42;0.40;;;0.40;;
15555;SDS011;7879;48.660;9.116;2023-03-03T04:08:09;0.40;;;0.40;;
15555;SDS011;7879;48.660;9.116;2023-03-03T04:10:37;0.40;;;0.40;;
15555;SDS011;7879;48.660;9.116;2023-03-03T04:13:04;0.40;;;0.40;;
15555;SDS011;7879;48.660;9.116;2023-03-03T04:15:31;0.40;;;0.40;;
15555;SDS011;7879;48.660;9.116;2023-03-03T04:17:58;0.33;;;0.33;;
15555;SDS011;7879;48.660;9.116;2023-03-03T04:20:25;0.30;;;0.30;;
15555;SDS011;7879;48.660;9.116;2023-03-03T04:22:52;0.30;;;0.30;;
15555;SDS011;7879;48.660;9.116;2023-03-03T04:25:18;0.30;;;0.30;;
15555;SDS011;7879;48.660;9.116;2023-03-03T04:27:45;0.30;;;0.30;;
15555;SDS011;7879;48.660;9.116;2023-03-03T04:30:13;0.30;;;0.30;;
15555;SDS011;7879;48.660;9.116;2023-03-03T04:32:40;0.30;;;0.30;;
15555;SDS011;7879;48.660;9.116;2023-03-03T04:35:08;0.32;;;0.32;;
15555;SDS011;7879;48.660;9.116;2023-03-03T04:37:35;0.40;;;0.40;;
15555;SDS011;7879;48.660;9.116;2023-03-03T04:40:04;0.40;;;0.40;;
15555;SDS011;7879;48.660;9.116;2023-03-03T04:42:32;0.40;;;0.40;;
15555;SDS011;7879;48.660;9.116;2023-03-03T04:45:00;0.40;;;0.40;;
15555;SDS011;7879;48.660;9.116;2023-03-03T04:47:26;0.40;;;0.40;;
15555;SDS011;7879;48.660;9.116;2023-03-03T04:49:53;0.30;;;0.30;;
15555;SDS011;7879;48.660;9.116;2023-03-03T04:52:20;0.30;;;0.30;;
15555;SDS011;7879;48.660;9.116;2023-03-03T04:54:46;0.30;;;0.30;;
15555;SDS011;7879;48.660;9.116;2023-03-03T04:57:13;0.30;;;0.30;;
15555;SDS011;7879;48.660;9.116;2023-03-03T04:59:40;0.40;;;0.40;;
15555;SDS011;7879;48.660;9.116;2023-03-03T05:02:07;0.30;;;0.30;;
15555;SDS011;7879;48.660;9.116;2023-03-03T05:04:34;0.40;;;0.40;;
15555;SDS011;7879;48.660;9.116;2023-03-03T05:07:00;0.40;;;0.40;;
15555;SDS011;7879;48.660;9.116;2023-03-03T05:09:27;0.40;;;0.40;;
15555;SDS011;7879;48.660;9.116;2023-03-03T05:11:54;0.40;;;0.40;;
15555;SDS011;7879;48.660;9.116;2023-03-03T05:14:21;0.40;;;0.40;;
15555;SDS011;7879;48.660;9.116;2023-03-03T05:16:48;0.40;;;0.40;;
15555;SDS011;7879;48.660;9.116;2023-03-03T05:19:14;0.40;;;0.40;;
15555;SDS011;7879;48.660;9.116;2023-03-03T05:21:41;0.30;;;0.30;;
15555;SDS011;7879;48.660;9.116;2023-03-03T05:24:11;0.30;;;0.30;;
15555;SDS011;7879;48.660;9.116;2023-03-03T05:26:39;0.30;;;0.30;;
15555;SDS011;7879;48.660;9.116;2023-03-03T05:29:06;0.30;;;0.30;;
15555;SDS011;7879;48.660;9.116;2023-03-03T05:31:33;0.30;;;0.30;;
15555;SDS011;7879;48.660;9.116;2023-03-03T05:34:01;0.30;;;0.30;;
15555;SDS011;7879;48.660;9.116;2023-03-03T05:36:28;0.30;;;0.30;;
15555;SDS011;7879;48.660;9.116;2023-03-03T05:38:54;0.38;;;0.38;;
15555;SDS011;7879;48.660;9.116;2023-03-03T05:41:21;0.40;;;0.40;;
15555;SDS011;7879;48.660;9.116;2023-03-03T05:43:48;0.40;;;0.40;;
15555;SDS011;7879;48.660;9.116;2023-03-03T05:46:15;0.40;;;0.40;;
15555;SDS011;7879;48.660;9.116;2023-03-03T05:48:42;0.40;;;0.40;;
15555;SDS011;7879;48.660;9.116;2023-03-03T05:51:09;0.40;;;0.40;;
15555;SDS011;7879;48.660;9.116;2023-03-03T05:53:36;0.35;;;0.35;;
15555;SDS011;7879;48.660;9.116;2023-03-03T05:56:02;0.30;;;0.30;;
15555;SDS011;7879;48.660;9.116;2023-03-03T05:58:30;0.30;;;0.30;;
15555;SDS011;7879;48.660;9.116;2023-03-03T06:00:56;0.30;;;0.30;;
15555;SDS011;7879;48.660;9.116;2023-03-03T06:03:23;0.40;;;0.40;;
15555;SDS011;7879;48.660;9.116;2023-03-03T06:05:50;0.40;;;0.40;;
15555;SDS011;7879;48.660;9.116;2023-03-03T06:08:16;0.40;;;0.40;;
15555;SDS011;7879;48.660;9.116;2023-03-03T06:10:43;0.30;;;0.30;;
15555;SDS011;7879;48.660;9.116;2023-03-03T06:13:10;0.30;;;0.30;;
15555;SDS011;7879;48.660;9.116;2023-03-03T06:15:37;0.30;;;0.30;;
15555;SDS011;7879;48.660;9.116;2023-03-03T06:18:04;0.30;;;0.30;;
15555;SDS011;7879;48.660;9.116;2023-03-03T06:20:31;0.30;;;0.30;;
15555;SDS011;7879;48.660;9.116;2023-03-03T06:22:58;0.38;;;0.38;;
15555;SDS011;7879;48.660;9.116;2023-03-03T06:25:25;0.32;;;0.32;;
15555;SDS011;7879;48.660;9.116;2023-03-03T06:27:52;0.40;;;0.40;;
15555;SDS011;7879;48.660;9.116;2023-03-03T06:30:19;0.30;;;0.30;;
15555;SDS011;7879;48.660;9.116;2023-03-03T06:32:46;0.40;;;0.40;;
15555;SDS011;7879;48.660;9.116;2023-03-03T06:35:13;0.40;;;0.40;;
15555;SDS011;7879;48.660;9.116;2023-03-03T06:37:39;0.30;;;0.30;;
15555;SDS011;7879;48.660;9.116;2023-03-03T06:40:06;0.40;;;0.40;;
15555;SDS011;7879;48.660;9.116;2023-03-03T06:42:35;0.40;;;0.40;;
15555;SDS011;7879;48.660;9.116;2023-03-03T06:45:02;0.40;;;0.40;;
15555;SDS011;7879;48.660;9.116;2023-03-03T06:47:29;0.40;;;0.40;;
15555;SDS011;7879;48.660;9.116;2023-03-03T06:49:56;0.40;;;0.40;;
15555;SDS011;7879;48.660;9.116;2023-03-03T06:52:24;0.40;;;0.40;;
15555;SDS011;7879;48.660;9.116;2023-03-03T06:54:53;0.40;;;0.40;;
15555;SDS011;7879;48.660;9.116;2023-03-03T06:57:30;0.40;;;0.40;;
15555;SDS011;7879;48.660;9.116;2023-03-03T07:00:11;0.40;;;0.40;;
15555;SDS011;7879;48.660;9.116;2023-03-03T07:02:40;0.40;;;0.40;;
15555;SDS011;7879;48.660;9.116;2023-03-03T07:05:14;0.40;;;0.40;;
15555;SDS011;7879;48.660;9.116;2023-03-03T07:07:43;0.40;;;0.40;;
15555;SDS011;7879;48.660;9.116;2023-03-03T07:10:21;0.40;;;0.40;;
15555;SDS011;7879;48.660;9.116;2023-03-03T07:12:50;0.40;;;0.40;;
15555;SDS011;7879;48.660;9.116;2023-03-03T07:17:51;0.40;;;0.40;;
15555;SDS011;7879;48.660;9.116;2023-03-03T07:20:23;0.30;;;0.30;;
15555;SDS011;7879;48.660;9.116;2023-03-03T07:23:22;0.30;;;0.30;;
15555;SDS011;7879;48.660;9.116;2023-03-03T07:25:51;0.30;;;0.30;;
15555;SDS011;7879;48.660;9.116;2023-03-03T07:30:50;0.30;;;0.30;;
15555;SDS011;7879;48.660;9.116;2023-03-03T07:35:55;0.30;;;0.30;;
15555;SDS011;7879;48.660;9.116;2023-03-03T07:38:28;0.28;;;0.28;;
15555;SDS011;7879;48.660;9.116;2023-03-03T07:41:10;0.30;;;0.30;;
15555;SDS011;7879;48.660;9.116;2023-03-03T07:43:50;0.30;;;0.30;;
15555;SDS011;7879;48.660;9.116;2023-03-03T07:46:46;0.30;;;0.30;;
15555;SDS011;7879;48.660;9.116;2023-03-03T07:51:55;0.20;;;0.20;;
15555;SDS011;7879;48.660;9.116;2023-03-03T07:54:37;0.20;;;0.20;;
15555;SDS011;7879;48.660;9.116;2023-03-03T07:59:36;0.30;;;0.30;;
15555;SDS011;7879;48.660;9.116;2023-03-03T08:02:10;0.30;;;0.30;;
15555;SDS011;7879;48.660;9.116;2023-03-03T08:04:45;0.30;;;0.30;;
15555;SDS011;7879;48.660;9.116;2023-03-03T08:07:16;0.30;;;0.30;;
15555;SDS011;7879;48.660;9.116;2023-03-03T08:09:51;0.20;;;0.20;;
15555;SDS011;7879;48.660;9.116;2023-03-03T08:12:26;0.20;;;0.20;;
15555;SDS011;7879;48.660;9.116;2023-03-03T08:15:01;0.30;;;0.30;;
15555;SDS011;7879;48.660;9.116;2023-03-03T08:17:38;0.20;;;0.20;;
15555;SDS011;7879;48.660;9.116;2023-03-03T08:20:28;0.20;;;0.20;;
15555;SDS011;7879;48.660;9.116;2023-03-03T08:22:55;0.30;;;0.30;;
15555;SDS011;7879;48.660;9.116;2023-03-03T08:25:21;0.30;;;0.30;;
15555;SDS011;7879;48.660;9.116;2023-03-03T08:27:49;0.30;;;0.30;;
15555;SDS011;7879;48.660;9.116;2023-03-03T08:30:16;0.20;;;0.20;;
15555;SDS011;7879;48.660;9.116;2023-03-03T08:32:42;0.20;;;0.20;;
15555;SDS011;7879;48.660;9.116;2023-03-03T08:35:09;0.20;;;0.20;;
15555;SDS011;7879;48.660;9.116;2023-03-03T08:37:36;0.30;;;0.30;;
15555;SDS011;7879;48.660;9.116;2023-03-03T08:40:03;0.20;;;0.20;;
15555;SDS011;7879;48.660;9.116;2023-03-03T08:42:31;0.20;;;0.20;;
15555;SDS011;7879;48.660;9.116;2023-03-03T08:44:58;0.30;;;0.30;;
15555;SDS011;7879;48.660;9.116;2023-03-03T08:47:25;0.20;;;0.20;;
15555;SDS011;7879;48.660;9.116;2023-03-03T08:49:51;0.20;;;0.20;;
15555;SDS011;7879;48.660;9.116;2023-03-03T08:52:19;0.30;;;0.30;;
15555;SDS011;7879;48.660;9.116;2023-03-03T08:54:46;0.20;;;0.20;;
15555;SDS011;7879;48.660;9.116;2023-03-03T08:57:13;0.20;;;0.20;;
15555;SDS011;7879;48.660;9.116;2023-03-03T08:59:40;0.30;;;0.30;;
15555;SDS011;7879;48.660;9.116;2023-03-03T09:02:07;0.20;;;0.20;;
15555;SDS011;7879;48.660;9.116;2023-03-03T09:04:34;0.20;;;0.20;;
15555;SDS011;7879;48.660;9.116;2023-03-03T09:07:02;0.30;;;0.30;;
15555;SDS011;7879;48.660;9.116;2023-03-03T09:09:28;0.20;;;0.20;;
15555;SDS011;7879;48.660;9.116;2023-03-03T09:11:59;0.30;;;0.30;;
15555;SDS011;7879;48.660;9.116;2023-03-03T09:14:38;0.10;;;0.10;;
15555;SDS011;7879;48.660;9.116;2023-03-03T09:17:13;0.20;;;0.20;;
15555;SDS011;7879;48.660;9.116;2023-03-03T09:19:50;0.20;;;0.20;;
15555;SDS011;7879;48.660;9.116;2023-03-03T09:22:22;0.10;;;0.10;;
15555;SDS011;7879;48.660;9.116;2023-03-03T09:24:52;0.20;;;0.20;;
15555;SDS011;7879;48.660;9.116;2023-03-03T09:30:01;0.10;;;0.10;;
15555;SDS011;7879;48.660;9.116;2023-03-03T09:32:55;0.10;;;0.10;;
15555;SDS011;7879;48.660;9.116;2023-03-03T09:35:33;0.10;;;0.10;;
15555;SDS011;7879;48.660;9.116;2023-03-03T09:43:49;0.10;;;0.10;;
15555;SDS011;7879;48.660;9.116;2023-03-03T09:46:41;0.10;;;0.10;;
15555;SDS011;7879;48.660;9.116;2023-03-03T09:52:02;0.10;;;0.10;;
15555;SDS011;7879;48.660;9.116;2023-03-03T10:23:03;0.10;;;0.10;;
15555;SDS011;7879;48.660;9.116;2023-03-03T10:30:59;0.10;;;0.10;;
15555;SDS011;7879;48.660;9.116;2023-03-03T10:33:56;0.10;;;0.10;;
15555;SDS011;7879;48.660;9.116;2023-03-03T10:47:41;0.10;;;0.10;;
15555;SDS011;7879;48.660;9.116;2023-03-03T10:50:45;0.10;;;0.10;;
15555;SDS011;7879;48.660;9.116;2023-03-03T10:56:25;0.10;;;0.10;;
15555;SDS011;7879;48.660;9.116;2023-03-03T11:01:57;0.10;;;0.10;;
15555;SDS011;7879;48.660;9.116;2023-03-03T11:04:38;0.10;;;0.10;;
15555;SDS011;7879;48.660;9.116;2023-03-03T11:26:40;0.10;;;0.10;;
15555;SDS011;7879;48.660;9.116;2023-03-03T11:29:23;0.10;;;0.10;;
15555;SDS011;7879;48.660;9.116;2023-03-03T11:34:36;0.10;;;0.10;;
15555;SDS011;7879;48.660;9.116;2023-03-03T11:40:27;0.10;;;0.10;;
15555;SDS011;7879;48.660;9.116;2023-03-03T11:43:05;0.10;;;0.10;;
15555;SDS011;7879;48.660;9.116;2023-03-03T11:46:05;0.10;;;0.10;;
15555;SDS011;7879;48.660;9.116;2023-03-03T11:48:38;0.10;;;0.10;;
15555;SDS011;7879;48.660;9.116;2023-03-03T11:51:12;0.10;;;0.10;;
15555;SDS011;7879;48.660;9.116;2023-03-03T11:56:47;0.10;;;0.10;;
15555;SDS011;7879;48.660;9.116;2023-03-03T11:59:28;0.10;;;0.10;;
15555;SDS011;7879;48.660;9.116;2023-03-03T12:04:40;0.10;;;0.10;;
15555;SDS011;7879;48.660;9.116;2023-03-03T12:35:29;0.00;;;0.00;;
15555;SDS011;7879;48.660;9.116;2023-03-03T12:38:01;0.10;;;0.10;;
15555;SDS011;7879;48.660;9.116;2023-03-03T12:41:02;0.10;;;0.10;;
15555;SDS011;7879;48.660;9.116;2023-03-03T12:46:30;0.10;;;0.10;;
15555;SDS011;7879;48.660;9.116;2023-03-03T12:49:17;0.10;;;0.10;;
15555;SDS011;7879;48.660;9.116;2023-03-03T12:57:44;0.10;;;0.10;;
15555;SDS011;7879;48.660;9.116;2023-03-03T13:03:02;0.10;;;0.10;;
15555;SDS011;7879;48.660;9.116;2023-03-03T13:06:10;0.20;;;0.20;;
15555;SDS011;7879;48.660;9.116;2023-03-03T13:11:31;0.10;;;0.10;;
15555;SDS011;7879;48.660;9.116;2023-03-03T13:17:23;0.10;;;0.10;;
15555;SDS011;7879;48.660;9.116;2023-03-03T13:20:20;0.10;;;0.10;;
15555;SDS011;7879;48.660;9.116;2023-03-03T13:23:12;0.10;;;0.10;;
15555;SDS011;7879;48.660;9.116;2023-03-03T13:31:40;0.15;;;0.15;;
15555;SDS011;7879;48.660;9.116;2023-03-03T13:34:24;0.10;;;0.10;;
15555;SDS011;7879;48.660;9.116;2023-03-03T13:40:05;0.10;;;0.10;;
15555;SDS011;7879;48.660;9.116;2023-03-03T13:45:17;0.10;;;0.10;;
15555;SDS011;7879;48.660;9.116;2023-03-03T13:50:58;0.20;;;0.20;;
15555;SDS011;7879;48.660;9.116;2023-03-03T13:53:31;0.20;;;0.20;;
15555;SDS011;7879;48.660;9.116;2023-03-03T14:01:23;0.20;;;0.20;;
15555;SDS011;7879;48.660;9.116;2023-03-03T14:04:04;0.20;;;0.20;;
15555;SDS011;7879;48.660;9.116;2023-03-03T14:06:56;0.20;;;0.20;;
15555;SDS011;7879;48.660;9.116;2023-03-03T14:09:41;0.20;;;0.20;;
15555;SDS011;7879;48.660;9.116;2023-03-03T14:20:15;0.20;;;0.20;;
15555;SDS011;7879;48.660;9.116;2023-03-03T14:23:07;0.20;;;0.20;;
15555;SDS011;7879;48.660;9.116;2023-03-03T14:26:10;0.20;;;0.20;;
15555;SDS011;7879;48.660;9.116;2023-03-03T14:28:38;0.20;;;0.20;;
15555;SDS011;7879;48.660;9.116;2023-03-03T14:31:22;0.10;;;0.10;;
15555;SDS011;7879;48.660;9.116;2023-03-03T14:36:42;0.20;;;0.20;;
15555;SDS011;7879;48.660;9.116;2023-03-03T14:43:17;0.10;;;0.10;;
15555;SDS011;7879;48.660;9.116;2023-03-03T14:46:29;0.10;;;0.10;;
15555;SDS011;7879;48.660;9.116;2023-03-03T14:49:11;0.20;;;0.20;;
15555;SDS011;7879;48.660;9.116;2023-03-03T14:51:42;0.20;;;0.20;;
15555;SDS011;7879;48.660;9.116;2023-03-03T14:54:19;0.20;;;0.20;;
15555;SDS011;7879;48.660;9.116;2023-03-03T14:57:39;0.10;;;0.10;;
15555;SDS011;7879;48.660;9.116;2023-03-03T15:00:28;0.20;;;0.20;;
15555;SDS011;7879;48.660;9.116;2023-03-03T15:03:22;0.10;;;0.10;;
15555;SDS011;7879;48.660;9.116;2023-03-03T15:06:26;0.10;;;0.10;;
15555;SDS011;7879;48.660;9.116;2023-03-03T15:09:24;0.20;;;0.20;;
15555;SDS011;7879;48.660;9.116;2023-03-03T15:12:22;0.20;;;0.20;;
15555;SDS011;7879;48.660;9.116;2023-03-03T15:17:52;0.10;;;0.10;;
15555;SDS011;7879;48.660;9.116;2023-03-03T15:21:04;0.20;;;0.20;;
15555;SDS011;7879;48.660;9.116;2023-03-03T15:23:57;0.20;;;0.20;;
15555;SDS011;7879;48.660;9.116;2023-03-03T15:27:07;0.20;;;0.20;;
15555;SDS011;7879;48.660;9.116;2023-03-03T15:36:16;0.20;;;0.20;;
15555;SDS011;7879;48.660;9.116;2023-03-03T15:40:13;0.30;;;0.30;;
15555;SDS011;7879;48.660;9.116;2023-03-03T15:43:42;0.20;;;0.20;;
15555;SDS011;7879;48.660;9.116;2023-03-03T16:05:25;0.20;;;0.20;;
15555;SDS011;7879;48.660;9.116;2023-03-03T16:08:18;0.20;;;0.20;;
15555;SDS011;7879;48.660;9.116;2023-03-03T16:11:07;0.20;;;0.20;;
15555;SDS011;7879;48.660;9.116;2023-03-03T16:33:33;0.20;;;0.20;;
15555;SDS011;7879;48.660;9.116;2023-03-03T16:36:13;0.30;;;0.30;;
15555;SDS011;7879;48.660;9.116;2023-03-03T16:38:44;0.20;;;0.20;;
15555;SDS011;7879;48.660;9.116;2023-03-03T16:41:32;0.30;;;0.30;;
15555;SDS011;7879;48.660;9.116;2023-03-03T16:46:42;0.30;;;0.30;;
15555;SDS011;7879;48.660;9.116;2023-03-03T16:49:17;0.30;;;0.30;;
15555;SDS011;7879;48.660;9.116;2023-03-03T16:52:02;0.20;;;0.20;;
15555;SDS011;7879;48.660;9.116;2023-03-03T16:54:43;0.20;;;0.20;;
15555;SDS011;7879;48.660;9.116;2023-03-03T17:11:31;0.30;;;0.30;;
15555;SDS011;7879;48.660;9.116;2023-03-03T17:17:18;0.30;;;0.30;;
15555;SDS011;7879;48.660;9.116;2023-03-03T17:22:46;0.30;;;0.30;;
15555;SDS011;7879;48.660;9.116;2023-03-03T17:33:37;0.30;;;0.30;;
15555;SDS011;7879;48.660;9.116;2023-03-03T17:36:44;0.30;;;0.30;;
15555;SDS011;7879;48.660;9.116;2023-03-03T17:55:57;0.30;;;0.30;;
15555;SDS011;7879;48.660;9.116;2023-03-03T17:58:49;0.30;;;0.30;;
15555;SDS011;7879;48.660;9.116;2023-03-03T18:13:21;0.22;;;0.22;;
15555;SDS011;7879;48.660;9.116;2023-03-03T18:21:37;0.40;;;0.40;;
15555;SDS011;7879;48.660;9.116;2023-03-03T18:24:13;0.30;;;0.30;;
15555;SDS011;7879;48.660;9.116;2023-03-03T18:26:54;0.30;;;0.30;;
15555;SDS011;7879;48.660;9.116;2023-03-03T18:29:23;0.30;;;0.30;;
15555;SDS011;7879;48.660;9.116;2023-03-03T18:37:50;0.30;;;0.30;;
15555;SDS011;7879;48.660;9.116;2023-03-03T18:42:31;0.30;;;0.30;;
15555;SDS011;7879;48.660;9.116;2023-03-03T18:50:31;0.40;;;0.40;;
15555;SDS011;7879;48.660;9.116;2023-03-03T18:55:53;0.40;;;0.40;;
15555;SDS011;7879;48.660;9.116;2023-03-03T18:58:40;0.40;;;0.40;;
15555;SDS011;7879;48.660;9.116;2023-03-03T19:04:17;0.30;;;0.30;;
15555;SDS011;7879;48.660;9.116;2023-03-03T19:07:06;0.30;;;0.30;;
15555;SDS011;7879;48.660;9.116;2023-03-03T19:16:49;0.30;;;0.30;;
15555;SDS011;7879;48.660;9.116;2023-03-03T19:19:18;0.40;;;0.40;;
15555;SDS011;7879;48.660;9.116;2023-03-03T19:22:20;0.30;;;0.30;;
15555;SDS011;7879;48.660;9.116;2023-03-03T19:25:39;0.30;;;0.30;;
15555;SDS011;7879;48.660;9.116;2023-03-03T19:31:05;0.30;;;0.30;;
15555;SDS011;7879;48.660;9.116;2023-03-03T19:34:05;0.40;;;0.40;;
15555;SDS011;7879;48.660;9.116;2023-03-03T19:37:35;0.40;;;0.40;;
15555;SDS011;7879;48.660;9.116;2023-03-03T19:52:45;0.40;;;0.40;;
15555;SDS011;7879;48.660;9.116;2023-03-03T20:01:20;0.30;;;0.30;;
15555;SDS011;7879;48.660;9.116;2023-03-03T20:06:52;0.30;;;0.30;;
15555;SDS011;7879;48.660;9.116;2023-03-03T20:13:02;0.30;;;0.30;;
15555;SDS011;7879;48.660;9.116;2023-03-03T20:24:37;0.30;;;0.30;;
15555;SDS011;7879;48.660;9.116;2023-03-03T20:39:05;0.40;;;0.40;;
15555;SDS011;7879;48.660;9.116;2023-03-03T20:48:04;0.32;;;0.32;;
15555;SDS011;7879;48.660;9.116;2023-03-03T20:59:41;0.40;;;0.40;;
15555;SDS011;7879;48.660;9.116;2023-03-03T21:02:40;0.40;;;0.40;;
15555;SDS011;7879;48.660;9.116;2023-03-03T21:05:28;0.40;;;0.40;;
15555;SDS011;7879;48.660;9.116;2023-03-03T21:08:22;0.40;;;0.40;;
15555;SDS011;7879;48.660;9.116;2023-03-03T21:11:12;0.40;;;0.40;;
15555;SDS011;7879;48.660;9.116;2023-03-03T21:13:41;0.30;;;0.30;;
15555;SDS011;7879;48.660;9.116;2023-03-03T21:16:28;0.30;;;0.30;;
15555;SDS011;7879;48.660;9.116;2023-03-03T21:19:41;0.30;;;0.30;;
15555;SDS011;7879;48.660;9.116;2023-03-03T21:22:12;0.30;;;0.30;;
15555;SDS011;7879;48.660;9.116;2023-03-03T21:24:51;0.30;;;0.30;;
15555;SDS011;7879;48.660;9.116;2023-03-03T21:27:38;0.40;;;0.40;;
15555;SDS011;7879;48.660;9.116;2023-03-03T21:30:39;0.50;;;0.50;;
15555;SDS011;7879;48.660;9.116;2023-03-03T21:33:56;0.40;;;0.40;;
15555;SDS011;7879;48.660;9.116;2023-03-03T21:36:20;0.40;;;0.40;;
15555;SDS011;7879;48.660;9.116;2023-03-03T21:38:58;0.40;;;0.40;;
15555;SDS011;7879;48.660;9.116;2023-03-03T21:41:48;0.40;;;0.40;;
15555;SDS011;7879;48.660;9.116;2023-03-03T21:44:41;0.40;;;0.40;;
15555;SDS011;7879;48.660;9.116;2023-03-03T21:47:19;0.40;;;0.40;;
15555;SDS011;7879;48.660;9.116;2023-03-03T21:50:00;0.32;;;0.32;;
15555;SDS011;7879;48.660;9.116;2023-03-03T21:52:38;0.40;;;0.40;;
15555;SDS011;7879;48.660;9.116;2023-03-03T21:55:08;0.40;;;0.40;;
15555;SDS011;7879;48.660;9.116;2023-03-03T21:57:35;0.40;;;0.40;;
15555;SDS011;7879;48.660;9.116;2023-03-03T22:00:06;0.50;;;0.50;;
15555;SDS011;7879;48.660;9.116;2023-03-03T22:02:34;0.50;;;0.50;;
15555;SDS011;7879;48.660;9.116;2023-03-03T22:05:02;0.45;;;0.45;;
15555;SDS011;7879;48.660;9.116;2023-03-03T22:07:29;0.30;;;0.30;;
15555;SDS011;7879;48.660;9.116;2023-03-03T22:10:09;0.30;;;0.30;;
15555;SDS011;7879;48.660;9.116;2023-03-03T22:12:39;0.30;;;0.30;;
15555;SDS011;7879;48.660;9.116;2023-03-03T22:15:08;0.32;;;0.32;;
15555;SDS011;7879;48.660;9.116;2023-03-03T22:17:35;0.40;;;0.40;;
15555;SDS011;7879;48.660;9.116;2023-03-03T22:20:02;0.40;;;0.40;;
15555;SDS011;7879;48.660;9.116;2023-03-03T22:22:29;0.50;;;0.50;;
15555;SDS011;7879;48.660;9.116;2023-03-03T22:24:56;0.50;;;0.50;;
15555;SDS011;7879;48.660;9.116;2023-03-03T22:27:23;0.40;;;0.40;;
15555;SDS011;7879;48.660;9.116;2023-03-03T22:29:53;0.30;;;0.30;;